createdAt,value
2023-05-14T00:00:02.411Z,9.2660
2023-05-14T00:01:03.244Z,9.2461
2023-05-14T00:02:05.028Z,9.2427
2023-05-14T00:03:07.499Z,9.1888
2023-05-14T00:04:08.659Z,9.1888
2023-05-14T00:06:10.658Z,9.1634
2023-05-14T00:08:12.153Z,9.1261
2023-05-14T00:09:13.733Z,9.0768
2023-05-14T00:17:19.972Z,8.8745
2023-05-14T00:21:54.917Z,8.7812
2023-05-14T00:22:55.103Z,8.7408
2023-05-14T00:30:01.042Z,8.4640
2023-05-14T00:31:01.992Z,8.3730
2023-05-14T00:32:03.672Z,8.3784
2023-05-14T00:34:06.357Z,8.2683
2023-05-14T00:35:07.775Z,8.2711
2023-05-14T00:36:09.098Z,8.2060
2023-05-14T00:37:09.899Z,8.1163
2023-05-14T00:38:11.381Z,8.1007
2023-05-14T00:40:11.376Z,8.1811
2023-05-14T00:41:13.591Z,8.2207
2023-05-14T00:43:15.074Z,8.2052
2023-05-14T00:44:15.799Z,8.1867
2023-05-14T00:45:16.494Z,8.1837
2023-05-14T00:51:21.735Z,8.1628
2023-05-14T00:52:24.303Z,8.1147
2023-05-14T00:55:28.486Z,8.2271
2023-05-14T00:56:28.601Z,8.2580
2023-05-14T00:57:30.234Z,8.2334
2023-05-14T00:58:31.432Z,8.2379
2023-05-14T00:59:32.698Z,8.2451
2023-05-14T01:00:33.327Z,8.2417
2023-05-14T01:01:33.732Z,8.2499
2023-05-14T01:02:34.530Z,8.2496
2023-05-14T01:03:35.483Z,8.2586
2023-05-14T01:04:35.887Z,8.2703
2023-05-14T01:05:36.163Z,8.2802
2023-05-14T01:06:36.413Z,8.3138
2023-05-14T01:07:38.957Z,8.3451
2023-05-14T01:08:41.084Z,8.3716
2023-05-14T01:09:41.843Z,8.3797
2023-05-14T01:10:42.118Z,8.3985
2023-05-14T01:11:42.798Z,8.4120
2023-05-14T01:12:43.089Z,8.4129
2023-05-14T01:13:43.408Z,8.4481
2023-05-14T01:14:44.639Z,8.4499
2023-05-14T01:15:45.263Z,8.4528
2023-05-14T01:16:47.235Z,8.4439
2023-05-14T01:17:47.415Z,8.4511
2023-05-14T01:18:48.893Z,8.4446
2023-05-14T01:19:49.094Z,8.4895
2023-05-14T01:20:51.037Z,8.4917
2023-05-14T01:21:52.606Z,8.5014
2023-05-14T01:22:54.792Z,8.5172
2023-05-14T01:23:56.314Z,8.5197
2023-05-14T01:24:57.779Z,8.5181
2023-05-14T01:25:59.179Z,8.5325
2023-05-14T01:27:00.476Z,8.5269
2023-05-14T01:28:02.381Z,8.5302
2023-05-14T01:29:02.423Z,8.5279
2023-05-14T01:30:03.665Z,8.5351
2023-05-14T01:31:05.614Z,8.5380
2023-05-14T01:32:06.936Z,8.5572
2023-05-14T01:33:07.276Z,8.5509
2023-05-14T01:34:07.782Z,8.5386
2023-05-14T01:35:09.511Z,8.5447
2023-05-14T01:36:10.066Z,8.5481
2023-05-14T01:37:10.994Z,8.5499
2023-05-14T01:38:11.319Z,8.5504
2023-05-14T01:46:17.037Z,8.5390
2023-05-14T01:49:20.423Z,8.5120
2023-05-14T01:50:20.681Z,8.5312
2023-05-14T01:51:22.097Z,8.5056
2023-05-14T01:52:23.230Z,8.5246
2023-05-14T01:53:24.477Z,8.5284
2023-05-14T01:54:24.967Z,8.5226
2023-05-14T01:55:26.402Z,8.5286
2023-05-14T01:56:28.422Z,8.5264
2023-05-14T01:57:28.668Z,8.5323
2023-05-14T01:58:30.063Z,8.5293
2023-05-14T01:59:30.365Z,8.5184
2023-05-14T02:00:31.708Z,8.5363
2023-05-14T02:01:34.389Z,8.5077
2023-05-14T02:02:35.182Z,8.5045
2023-05-14T02:03:35.257Z,8.5127
2023-05-14T02:04:36.300Z,8.5007
2023-05-14T02:09:40.558Z,8.5560
2023-05-14T02:10:41.110Z,8.5606
2023-05-14T02:12:42.207Z,8.5462
2023-05-14T02:14:42.673Z,8.5097
2023-05-14T02:15:44.247Z,8.4804
2023-05-14T02:16:45.100Z,8.4661
2023-05-14T02:17:45.214Z,8.4485
2023-05-14T02:18:47.499Z,8.4350
2023-05-14T02:20:49.313Z,8.4201
2023-05-14T02:31:01.296Z,8.2791
2023-05-14T02:32:01.410Z,8.2573
2023-05-14T02:34:03.886Z,8.2114
2023-05-14T02:37:07.403Z,8.2009
2023-05-14T02:38:07.507Z,8.1717
2023-05-14T02:39:07.417Z,8.1405
2023-05-14T02:40:09.253Z,8.1565
2023-05-14T02:41:10.298Z,8.1377
2023-05-14T02:42:11.870Z,8.1148
2023-05-14T02:43:13.471Z,8.0894
2023-05-14T02:44:14.127Z,8.0724
2023-05-14T02:45:16.305Z,8.0248
2023-05-14T02:46:18.759Z,7.9860
2023-05-14T02:47:19.759Z,7.9726
2023-05-14T02:48:20.328Z,7.9471
2023-05-14T02:49:20.615Z,7.9140
2023-05-14T02:50:23.529Z,7.8786
2023-05-14T02:51:25.245Z,7.8644
2023-05-14T02:52:26.077Z,7.8548
2023-05-14T02:53:26.932Z,7.8520
2023-05-14T02:54:28.149Z,7.8543
2023-05-14T02:55:30.068Z,7.8483
2023-05-14T02:56:32.107Z,7.8371
2023-05-14T02:57:32.601Z,7.8300
2023-05-14T02:58:34.783Z,7.8357
2023-05-14T02:59:34.845Z,7.8284
2023-05-14T03:00:36.554Z,7.8392
2023-05-14T03:02:38.931Z,7.8545
2023-05-14T03:03:39.226Z,7.8733
2023-05-14T03:04:39.960Z,7.8784
2023-05-14T03:05:41.266Z,7.8874
2023-05-14T03:06:42.369Z,7.9027
2023-05-14T03:10:46.904Z,7.9525
2023-05-14T03:12:49.038Z,7.9901
2023-05-14T03:13:49.932Z,7.9921
2023-05-14T03:14:51.523Z,7.9983
2023-05-14T03:16:53.689Z,7.9939
2023-05-14T03:17:55.508Z,7.9889
2023-05-14T03:18:55.940Z,7.9860
2023-05-14T03:19:56.146Z,7.9505
2023-05-14T03:20:57.325Z,7.9262
2023-05-14T03:21:59.522Z,7.8931
2023-05-14T03:23:00.148Z,7.8497
2023-05-14T03:24:00.475Z,7.8039
2023-05-14T03:25:03.335Z,7.7503
2023-05-14T03:26:04.443Z,7.6750
2023-05-14T03:27:04.473Z,7.6104
2023-05-14T03:28:05.504Z,7.5544
2023-05-14T03:29:07.186Z,7.4937
2023-05-14T03:30:07.301Z,7.4588
2023-05-14T03:31:09.036Z,7.4268
2023-05-14T03:32:10.798Z,7.3874
2023-05-14T03:33:12.533Z,7.3284
2023-05-14T03:34:14.226Z,7.2583
2023-05-14T03:35:16.029Z,7.2203
2023-05-14T03:36:16.336Z,7.1752
2023-05-14T03:37:18.338Z,7.1447
2023-05-14T03:38:18.584Z,7.0935
2023-05-14T03:39:21.223Z,7.0665
2023-05-14T03:40:22.475Z,7.0418
2023-05-14T03:41:23.152Z,7.0244
2023-05-14T03:42:24.300Z,7.0151
2023-05-14T03:43:25.427Z,7.0050
2023-05-14T03:52:34.006Z,7.1476
2023-05-14T03:55:34.972Z,7.2340
2023-05-14T03:56:36.812Z,7.2714
2023-05-14T03:57:37.884Z,7.3107
2023-05-14T03:58:39.986Z,7.3497
2023-05-14T03:59:41.737Z,7.3887
2023-05-14T04:00:42.069Z,7.4345
2023-05-14T04:01:43.372Z,7.4763
2023-05-14T04:02:44.689Z,7.5297
2023-05-14T04:07:49.965Z,7.7661
2023-05-14T04:08:50.939Z,7.7937
2023-05-14T04:10:52.164Z,7.8215
2023-05-14T04:11:52.300Z,7.8675
2023-05-14T04:12:53.539Z,7.9001
2023-05-14T04:13:55.636Z,7.9235
2023-05-14T04:14:56.312Z,7.9679
2023-05-14T04:16:59.529Z,8.0739
2023-05-14T04:23:02.219Z,8.3068
2023-05-14T04:24:04.467Z,8.3437
2023-05-14T04:26:05.667Z,8.3849
2023-05-14T04:27:07.276Z,8.4354
2023-05-14T04:28:09.804Z,8.4714
2023-05-14T04:29:10.102Z,8.4976
2023-05-14T04:30:12.380Z,8.5201
2023-05-14T04:33:14.826Z,8.5851
2023-05-14T04:34:17.173Z,8.6060
2023-05-14T04:36:18.056Z,8.6642
2023-05-14T04:37:19.663Z,8.7000
2023-05-14T04:38:19.815Z,8.7010
2023-05-14T04:41:21.194Z,8.7666
2023-05-14T04:42:23.569Z,8.7949
2023-05-14T04:43:24.518Z,8.8148
2023-05-14T04:45:26.632Z,8.8051
2023-05-14T04:46:28.923Z,8.8354
2023-05-14T04:48:29.136Z,8.9020
2023-05-14T04:49:31.045Z,8.9432
2023-05-14T04:50:31.352Z,8.9425
2023-05-14T04:51:33.649Z,8.9311
2023-05-14T04:58:39.361Z,9.3200
2023-05-14T05:01:42.259Z,9.5006
2023-05-14T05:02:42.882Z,9.5619
2023-05-14T05:03:43.146Z,9.6205
2023-05-14T05:04:45.508Z,9.6737
2023-05-14T05:05:47.840Z,9.7164
2023-05-14T05:06:48.521Z,9.7700
2023-05-14T05:07:49.319Z,9.8045
2023-05-14T05:08:49.375Z,9.7302
2023-05-14T05:09:50.025Z,9.7130
2023-05-14T05:10:50.146Z,9.7344
2023-05-14T05:11:51.542Z,9.7720
2023-05-14T05:12:53.719Z,9.7799
2023-05-14T05:13:54.371Z,9.8070
2023-05-14T05:14:55.626Z,9.8064
2023-05-14T05:17:58.550Z,9.7455
2023-05-14T05:32:17.817Z,10.1953
2023-05-14T05:33:18.900Z,10.1281
2023-05-14T05:34:20.743Z,10.1133
2023-05-14T05:35:23.083Z,10.1567
2023-05-14T05:36:23.464Z,10.1725
2023-05-14T05:37:23.535Z,10.2849
2023-05-14T05:38:25.241Z,10.4229
2023-05-14T05:39:26.447Z,10.4122
2023-05-14T05:40:27.518Z,10.3863
2023-05-14T05:41:28.038Z,10.4098
2023-05-14T05:42:30.720Z,10.4140
2023-05-14T05:43:31.772Z,10.4207
2023-05-14T05:44:33.521Z,10.4133
2023-05-14T05:45:34.164Z,10.4273
2023-05-14T05:46:35.839Z,10.4531
2023-05-14T05:47:37.891Z,10.4660
2023-05-14T05:48:40.071Z,10.5258
2023-05-14T05:49:40.844Z,10.6173
2023-05-14T05:50:41.205Z,10.7431
2023-05-14T05:51:41.333Z,10.8218
2023-05-14T05:52:41.736Z,10.6994
2023-05-14T05:53:43.968Z,10.6903
2023-05-14T05:54:45.009Z,10.8978
2023-05-14T05:55:46.479Z,10.9182
2023-05-14T05:56:47.633Z,11.0188
2023-05-14T05:57:49.201Z,11.2099
2023-05-14T05:58:49.824Z,11.3023
2023-05-14T05:59:50.105Z,11.3415
2023-05-14T06:00:51.690Z,11.2998
2023-05-14T06:01:52.960Z,11.4433
2023-05-14T06:02:53.951Z,11.5204
2023-05-14T06:03:55.230Z,11.5287
2023-05-14T06:04:57.104Z,11.4852
2023-05-14T06:05:58.283Z,11.3607
2023-05-14T06:07:00.014Z,11.4245
2023-05-14T06:08:01.132Z,11.3292
2023-05-14T06:11:46.957Z,10.9628
2023-05-14T06:12:48.959Z,11.0282
2023-05-14T06:13:50.530Z,11.0260
2023-05-14T06:14:50.999Z,10.8458
2023-05-14T06:15:51.799Z,10.8382
2023-05-14T06:16:54.343Z,10.9167
2023-05-14T06:17:55.328Z,10.9668
2023-05-14T06:18:55.961Z,10.9974
2023-05-14T06:19:57.719Z,10.9029
2023-05-14T06:20:58.767Z,10.8143
2023-05-14T06:21:59.089Z,10.8488
2023-05-14T06:23:01.909Z,10.8503
2023-05-14T06:24:02.208Z,10.7924
2023-05-14T06:25:02.590Z,10.7570
2023-05-14T06:26:03.296Z,10.7638
2023-05-14T06:27:05.283Z,10.7829
2023-05-14T06:28:06.758Z,10.7795
2023-05-14T06:29:08.644Z,10.6844
2023-05-14T06:30:09.410Z,10.6850
2023-05-14T06:31:10.417Z,10.7047
2023-05-14T06:32:11.122Z,10.5253
2023-05-14T06:33:13.234Z,10.6674
2023-05-14T06:34:14.057Z,10.7863
2023-05-14T06:35:16.693Z,10.8546
2023-05-14T06:36:17.522Z,10.8188
2023-05-14T06:37:17.965Z,10.8334
2023-05-14T06:38:19.164Z,10.9541
2023-05-14T06:39:20.804Z,11.0177
2023-05-14T06:40:22.036Z,10.9598
2023-05-14T06:41:23.719Z,10.9719
2023-05-14T06:42:26.134Z,10.9923
2023-05-14T06:45:01.741Z,11.2014
2023-05-14T06:48:02.632Z,11.0880
2023-05-14T06:49:03.444Z,11.2133
2023-05-14T06:50:05.108Z,11.1871
2023-05-14T06:53:37.918Z,11.3765
2023-05-14T06:55:39.812Z,11.4762
2023-05-14T06:56:39.801Z,11.4729
2023-05-14T06:57:41.624Z,11.3689
2023-05-14T06:58:42.809Z,11.4366
2023-05-14T06:59:43.407Z,11.2804
2023-05-14T07:00:45.293Z,11.5146
2023-05-14T07:01:46.457Z,11.7050
2023-05-14T07:03:11.410Z,11.8158
2023-05-14T07:05:19.629Z,11.9085
2023-05-14T07:06:20.732Z,11.8373
2023-05-14T07:07:22.322Z,11.9155
2023-05-14T07:11:25.707Z,11.9302
2023-05-14T07:12:28.508Z,11.9324
2023-05-14T07:13:30.253Z,11.7337
2023-05-14T07:14:30.582Z,11.8651
2023-05-14T07:15:32.105Z,11.4492
2023-05-14T07:16:33.541Z,11.3999
2023-05-14T07:24:40.472Z,11.9288
2023-05-14T07:25:41.052Z,11.9647
2023-05-14T07:26:41.908Z,12.0302
2023-05-14T07:27:42.662Z,12.1711
2023-05-14T07:28:44.439Z,12.2911
2023-05-14T07:29:44.502Z,12.4536
2023-05-14T07:30:46.011Z,12.5748
2023-05-14T07:31:46.657Z,12.7891
2023-05-14T07:32:48.253Z,12.6828
2023-05-14T07:33:50.505Z,13.0558
2023-05-14T07:38:31.678Z,13.5777
2023-05-14T07:39:33.080Z,13.5856
2023-05-14T07:42:07.618Z,12.9055
2023-05-14T07:48:56.695Z,14.1514
2023-05-14T07:49:57.829Z,14.6626
2023-05-14T07:54:00.893Z,16.7785
2023-05-14T07:55:01.830Z,16.8789
2023-05-14T07:56:47.658Z,16.7389
2023-05-14T12:18:24.631Z,12.6534
2023-05-14T12:21:22.477Z,12.4900
2023-05-14T12:28:10.772Z,12.3203
2023-05-14T12:31:13.343Z,12.3192
2023-05-14T12:32:13.528Z,12.4161
2023-05-14T12:44:11.470Z,12.6495
2023-05-14T12:46:13.556Z,12.7074
2023-05-14T12:47:14.069Z,12.9894
2023-05-14T12:48:14.944Z,13.1883
2023-05-14T12:51:50.147Z,13.6395
2023-05-14T12:52:49.042Z,13.5579
2023-05-14T12:53:49.195Z,13.6380
2023-05-14T12:58:55.301Z,13.9220
2023-05-14T13:00:26.432Z,13.9958
2023-05-14T13:03:28.244Z,14.2098
2023-05-14T13:09:34.018Z,14.4051
2023-05-14T13:12:37.492Z,14.7973
2023-05-14T13:27:22.703Z,15.1152
2023-05-14T13:28:24.634Z,14.9951
2023-05-14T13:29:25.604Z,15.1813
2023-05-14T13:32:27.286Z,15.8118
2023-05-14T13:33:27.566Z,15.4684
2023-05-14T13:34:28.062Z,15.6672
2023-05-14T13:35:30.378Z,16.2110
2023-05-14T13:36:30.747Z,16.6263
2023-05-14T13:37:31.003Z,16.3779
2023-05-14T13:42:45.156Z,16.1601
2023-05-14T13:47:17.377Z,16.3476
2023-05-14T13:57:29.770Z,17.0963
2023-05-14T14:05:38.136Z,20.4235
2023-05-14T14:45:35.343Z,15.1393
2023-05-14T14:53:09.225Z,13.2409
2023-05-14T14:54:10.040Z,12.7633
2023-05-14T15:10:26.315Z,10.7919
2023-05-14T15:11:27.631Z,10.8085
2023-05-14T15:12:27.966Z,10.8643
2023-05-14T15:13:29.904Z,10.8804
2023-05-14T15:14:30.858Z,10.9159
2023-05-14T15:15:30.945Z,10.9534
2023-05-14T15:16:32.628Z,10.9379
2023-05-14T15:17:32.614Z,10.9355
2023-05-14T15:18:34.304Z,10.9447
2023-05-14T15:23:11.632Z,11.0692
2023-05-14T15:24:13.900Z,11.0997
2023-05-14T15:25:16.745Z,11.1442
2023-05-14T15:26:17.333Z,11.1141
2023-05-14T15:27:19.784Z,11.0474
2023-05-14T15:28:20.460Z,11.0387
2023-05-14T15:29:20.561Z,11.0565
2023-05-14T15:30:21.742Z,11.0883
2023-05-14T15:31:22.967Z,11.1160
2023-05-14T15:32:23.650Z,11.1530
2023-05-14T15:33:33.675Z,11.1985
2023-05-14T15:41:04.083Z,11.0351
2023-05-14T15:42:04.741Z,11.0583
2023-05-14T15:50:10.279Z,11.2381
2023-05-14T15:51:12.499Z,11.3093
2023-05-14T15:52:14.154Z,11.3713
2023-05-14T15:53:16.388Z,11.4252
2023-05-14T15:54:16.857Z,11.5003
2023-05-14T15:55:18.621Z,11.5917
2023-05-14T15:56:18.422Z,11.6970
2023-05-14T15:57:20.091Z,11.8198
2023-05-14T15:58:19.200Z,11.9679
2023-05-14T16:00:23.538Z,12.2498
2023-05-14T16:32:58.299Z,10.7476
2023-05-14T16:34:02.132Z,10.7479
2023-05-14T16:47:01.092Z,10.5179
2023-05-14T16:56:11.604Z,10.2938
2023-05-14T16:59:12.205Z,10.2653
2023-05-14T17:00:14.388Z,10.2466
2023-05-14T17:01:16.050Z,10.2284
2023-05-14T17:02:18.260Z,10.2088
2023-05-14T17:03:20.437Z,10.2026
2023-05-14T17:04:21.537Z,10.1850
2023-05-14T17:05:22.575Z,10.1912
2023-05-14T17:06:22.642Z,10.1861
2023-05-14T17:08:26.733Z,10.1850
2023-05-14T17:09:26.771Z,10.1778
2023-05-14T17:10:28.447Z,10.1823
2023-05-14T17:11:29.485Z,10.1754
2023-05-14T17:12:29.773Z,10.1987
2023-05-14T17:13:31.853Z,10.1898
2023-05-14T17:14:33.592Z,10.1940
2023-05-14T17:15:35.203Z,10.2045
2023-05-14T17:16:37.137Z,10.2198
2023-05-14T17:17:37.188Z,10.2195
2023-05-14T17:18:37.564Z,10.2461
2023-05-14T17:19:39.297Z,10.2430
2023-05-14T17:20:39.966Z,10.2347
2023-05-14T17:21:42.011Z,10.2107
2023-05-14T17:22:43.748Z,10.2090
2023-05-14T17:23:45.664Z,10.2146
2023-05-14T17:24:47.546Z,10.2082
2023-05-14T17:25:49.295Z,10.2103
2023-05-14T17:26:51.114Z,10.2128
2023-05-14T17:27:51.306Z,10.2166
2023-05-14T17:28:53.378Z,10.2295
2023-05-14T17:29:53.944Z,10.2285
2023-05-14T17:30:54.352Z,10.2203
2023-05-14T17:31:56.574Z,10.2177
2023-05-14T17:32:57.398Z,10.2244
2023-05-14T17:33:58.020Z,10.2323
2023-05-14T17:34:59.008Z,10.2527
2023-05-14T17:35:59.669Z,10.2732
2023-05-14T17:37:00.172Z,10.2888
2023-05-14T17:38:00.717Z,10.3121
2023-05-14T17:39:01.927Z,10.3313
2023-05-14T17:40:02.427Z,10.3642
2023-05-14T17:42:03.469Z,10.3272
2023-05-14T17:43:03.766Z,10.2155
2023-05-14T17:44:05.120Z,10.1307
2023-05-14T17:45:06.341Z,10.0734
2023-05-14T17:46:07.620Z,10.0576
2023-05-14T17:47:09.151Z,10.0924
2023-05-14T17:48:09.401Z,10.1189
2023-05-14T17:49:10.725Z,10.1403
2023-05-14T17:50:11.271Z,10.1565
2023-05-14T17:51:12.095Z,10.1657
2023-05-14T17:56:15.046Z,10.3230
2023-05-14T17:57:15.804Z,10.3517
2023-05-14T17:58:17.397Z,10.3680
2023-05-14T18:00:21.923Z,10.3899
2023-05-14T18:06:27.715Z,10.3766
2023-05-14T18:07:30.382Z,10.3756
2023-05-14T18:08:30.464Z,10.3585
2023-05-14T18:09:31.080Z,10.3404
2023-05-14T18:10:33.761Z,10.3266
2023-05-14T18:11:35.028Z,10.3397
2023-05-14T18:12:36.948Z,10.3582
2023-05-14T18:13:38.623Z,10.3731
2023-05-14T18:14:40.408Z,10.3954
2023-05-14T18:15:42.112Z,10.4228
2023-05-14T18:16:43.241Z,10.4603
2023-05-14T18:17:43.423Z,10.4792
2023-05-14T18:18:44.588Z,10.4824
2023-05-14T18:19:44.836Z,10.4543
2023-05-14T18:20:46.748Z,10.4509
2023-05-14T18:21:48.446Z,10.3911
2023-05-14T18:22:49.585Z,10.3608
2023-05-14T18:23:51.486Z,10.3747
2023-05-14T18:24:52.945Z,10.3670
2023-05-14T18:25:53.099Z,10.3568
2023-05-14T18:26:53.243Z,10.3588
2023-05-14T18:27:56.087Z,10.3257
2023-05-14T18:28:57.261Z,10.2198
2023-05-14T18:30:57.146Z,10.1328
2023-05-14T18:36:03.035Z,10.0012
2023-05-14T18:37:05.129Z,9.9610
2023-05-14T18:38:06.480Z,9.9385
2023-05-14T18:39:07.738Z,9.9233
2023-05-14T18:40:10.035Z,9.9186
2023-05-14T18:41:11.736Z,9.9043
2023-05-14T18:42:13.499Z,9.8923
2023-05-14T18:43:15.688Z,9.8772
2023-05-14T18:44:16.192Z,9.8633
2023-05-14T18:45:19.318Z,9.8397
2023-05-14T18:46:20.685Z,9.8147
2023-05-14T18:47:20.761Z,9.7848
2023-05-14T18:48:22.671Z,9.7651
2023-05-14T18:49:24.054Z,9.7352
2023-05-14T18:55:30.407Z,9.6392
2023-05-14T19:01:38.406Z,9.5395
2023-05-14T19:02:39.302Z,9.5227
2023-05-14T19:05:42.442Z,9.4812
2023-05-14T19:06:44.513Z,9.4743
2023-05-14T19:07:44.926Z,9.4664
2023-05-14T19:08:47.080Z,9.4585
2023-05-14T19:09:47.466Z,9.4364
2023-05-14T19:10:47.597Z,9.4298
2023-05-14T19:12:51.992Z,9.4143
2023-05-14T19:13:52.073Z,9.4164
2023-05-14T19:14:53.892Z,9.4190
2023-05-14T19:16:58.228Z,9.4164
2023-05-14T19:17:59.051Z,9.4152
2023-05-14T19:20:01.263Z,9.4206
2023-05-14T19:21:02.097Z,9.4201
2023-05-14T19:22:03.669Z,9.4468
2023-05-14T19:23:03.894Z,9.4482
2023-05-14T19:24:06.586Z,9.4612
2023-05-14T19:25:08.447Z,9.4687
2023-05-14T19:27:10.124Z,9.4740
2023-05-14T19:28:11.095Z,9.4795
2023-05-14T19:29:13.120Z,9.4763
2023-05-14T19:30:14.828Z,9.4753
2023-05-14T19:31:16.594Z,9.4759
2023-05-14T19:32:17.873Z,9.4746
2023-05-14T19:33:17.886Z,9.4881
2023-05-14T19:43:29.006Z,9.3639
2023-05-14T19:44:29.220Z,9.3532
2023-05-14T19:47:30.893Z,9.3317
2023-05-14T19:52:36.890Z,9.3672
2023-05-14T19:53:38.450Z,9.3950
2023-05-14T19:55:38.881Z,9.4476
2023-05-14T19:57:42.434Z,9.4781
2023-05-14T19:58:44.255Z,9.5112
2023-05-14T19:59:46.055Z,9.5491
2023-05-14T20:00:48.211Z,9.5654
2023-05-14T20:01:50.723Z,9.5716
2023-05-14T20:03:52.034Z,9.5892
2023-05-14T20:04:53.839Z,9.5879
2023-05-14T20:05:55.492Z,9.6118
2023-05-14T20:06:57.237Z,9.6325
2023-05-14T20:07:57.755Z,9.6405
2023-05-14T20:08:58.599Z,9.6404
2023-05-14T20:09:59.817Z,9.6366
2023-05-14T20:11:00.964Z,9.6490
2023-05-14T20:12:02.720Z,9.6612
2023-05-14T20:13:04.546Z,9.6889
2023-05-14T20:14:07.263Z,9.7228
2023-05-14T20:15:08.669Z,9.7318
2023-05-14T20:16:09.199Z,9.7255
2023-05-14T20:17:09.780Z,9.7166
2023-05-14T20:18:10.283Z,9.7099
2023-05-14T20:19:12.190Z,9.6985
2023-05-14T20:20:13.010Z,9.6869
2023-05-14T20:21:14.011Z,9.6738
2023-05-14T20:22:15.034Z,9.6677
2023-05-14T20:23:17.478Z,9.6594
2023-05-14T20:28:23.120Z,9.6280
2023-05-14T20:29:25.581Z,9.6291
2023-05-14T20:30:26.375Z,9.6314
2023-05-14T20:31:26.688Z,9.6324
2023-05-14T20:32:27.752Z,9.6383
2023-05-14T20:34:28.765Z,9.6367
2023-05-14T20:35:30.141Z,9.6341
2023-05-14T20:36:30.122Z,9.6289
2023-05-14T20:37:32.097Z,9.6144
2023-05-14T20:38:33.423Z,9.6024
2023-05-14T20:39:34.648Z,9.5956
2023-05-14T20:40:35.864Z,9.5894
2023-05-14T20:41:36.378Z,9.5906
2023-05-14T20:42:37.885Z,9.5734
2023-05-14T20:53:58.219Z,9.5897
2023-05-14T20:55:01.851Z,9.6172
2023-05-14T20:56:00.976Z,9.6413
2023-05-14T20:57:01.183Z,9.6546
2023-05-14T20:58:03.234Z,9.6585
2023-05-14T20:59:03.854Z,9.6560
2023-05-14T21:00:03.919Z,9.6624
2023-05-14T21:01:07.171Z,9.6665
2023-05-14T21:03:07.338Z,9.6470
2023-05-14T21:04:08.060Z,9.6492
2023-05-14T21:05:09.023Z,9.6324
2023-05-14T21:06:10.996Z,9.6200
2023-05-14T21:07:11.574Z,9.6252
2023-05-14T21:09:13.934Z,9.6278
2023-05-14T21:10:15.277Z,9.6320
2023-05-14T21:11:16.314Z,9.6296
2023-05-14T21:12:16.498Z,9.6040
2023-05-14T21:13:16.941Z,9.5929
2023-05-14T21:14:18.653Z,9.6056
2023-05-14T21:15:20.872Z,9.6084
2023-05-14T21:16:23.044Z,9.5994
2023-05-14T21:17:24.444Z,9.5969
2023-05-14T21:18:25.305Z,9.5893
2023-05-14T21:19:25.624Z,9.5826
2023-05-14T21:20:28.326Z,9.5642
2023-05-14T21:23:30.234Z,9.4528
2023-05-14T21:24:31.181Z,9.4243
2023-05-14T21:25:32.803Z,9.4078
2023-05-14T21:26:34.057Z,9.3897
2023-05-14T21:27:35.858Z,9.3731
2023-05-14T21:29:38.685Z,9.3624
2023-05-14T21:30:41.678Z,9.3372
2023-05-14T21:31:41.955Z,9.3200
2023-05-14T21:32:44.725Z,9.3260
2023-05-14T21:33:44.991Z,9.2756
2023-05-14T21:34:45.285Z,9.2534
2023-05-14T21:35:48.416Z,9.2326
2023-05-14T21:38:50.989Z,9.1920
2023-05-14T21:39:51.284Z,9.1908
2023-05-14T21:40:52.510Z,9.1758
2023-05-14T21:46:59.490Z,8.9812
2023-05-14T21:47:59.898Z,8.9746
2023-05-14T21:49:59.780Z,8.9142
2023-05-14T21:51:02.074Z,8.8753
2023-05-14T21:52:03.488Z,8.8300
2023-05-14T21:53:05.449Z,8.7919
2023-05-14T21:54:05.498Z,8.8037
2023-05-14T21:55:06.075Z,8.7872
2023-05-14T21:57:07.568Z,8.7755
2023-05-14T21:58:08.509Z,8.7650
2023-05-14T21:59:08.522Z,8.7531
2023-05-14T22:00:09.552Z,8.7459
2023-05-14T22:01:11.092Z,8.7467
2023-05-14T22:02:12.138Z,8.7280
2023-05-14T22:03:13.007Z,8.7131
2023-05-14T22:04:13.886Z,8.7069
2023-05-14T22:06:15.196Z,8.7443
2023-05-14T22:07:15.599Z,8.7405
2023-05-14T22:08:18.383Z,8.7536
2023-05-14T22:09:19.938Z,8.7708
2023-05-14T22:10:21.681Z,8.7652
2023-05-14T22:12:22.080Z,8.7066
2023-05-14T22:13:24.115Z,8.7309
2023-05-14T22:14:24.795Z,8.7204
2023-05-14T22:16:27.057Z,8.7087
2023-05-14T22:17:27.332Z,8.6940
2023-05-14T22:18:28.119Z,8.6948
2023-05-14T22:21:33.494Z,8.6655
2023-05-14T22:22:33.937Z,8.6848
2023-05-14T22:23:35.276Z,8.6852
2023-05-14T22:24:36.149Z,8.6981
2023-05-14T22:25:37.273Z,8.6857
2023-05-14T22:26:38.127Z,8.6911
2023-05-14T22:27:40.317Z,8.6881
2023-05-14T22:28:41.004Z,8.6849
2023-05-14T22:29:41.790Z,8.6798
2023-05-14T22:30:42.895Z,8.6971
2023-05-14T22:31:44.743Z,8.6967
2023-05-14T22:32:46.789Z,8.7220
2023-05-14T22:33:47.083Z,8.7230
2023-05-14T22:34:48.186Z,8.7339
2023-05-14T22:35:49.485Z,8.7490
2023-05-14T22:36:50.047Z,8.7721
2023-05-14T22:37:50.913Z,8.7816
2023-05-14T22:38:52.568Z,8.8009
2023-05-14T22:50:10.551Z,8.9010
2023-05-14T22:51:12.074Z,8.8434
2023-05-14T22:52:12.542Z,8.7899
2023-05-14T22:53:13.796Z,8.7864
2023-05-14T22:54:16.335Z,8.8354
2023-05-14T22:56:17.311Z,8.8341
2023-05-14T22:57:17.998Z,8.8709
2023-05-14T22:58:19.389Z,8.9106
2023-05-14T23:00:24.224Z,8.9340
2023-05-14T23:01:24.977Z,8.9361
2023-05-14T23:02:25.474Z,8.9252
2023-05-14T23:03:26.965Z,8.9183
2023-05-14T23:04:28.191Z,8.9750
2023-05-14T23:06:30.206Z,8.9680
2023-05-14T23:07:30.828Z,8.9448
2023-05-14T23:08:31.800Z,8.9536
2023-05-14T23:09:33.117Z,8.9422
2023-05-14T23:10:33.976Z,8.9410
2023-05-14T23:11:36.128Z,8.9278
2023-05-14T23:12:38.115Z,8.9199
2023-05-14T23:13:40.830Z,8.9079
2023-05-14T23:14:42.375Z,8.9078
2023-05-14T23:15:44.514Z,8.9029
2023-05-14T23:16:44.707Z,8.9069
2023-05-14T23:17:45.603Z,8.9093
2023-05-14T23:18:45.861Z,8.9203
2023-05-14T23:19:47.100Z,8.9393
2023-05-14T23:20:48.135Z,8.9718
2023-05-14T23:21:49.437Z,9.0271
2023-05-14T23:22:50.855Z,9.0438
2023-05-14T23:23:52.715Z,9.0714
2023-05-14T23:25:52.764Z,9.0706
2023-05-14T23:26:55.629Z,9.0536
2023-05-14T23:27:57.008Z,9.0613
2023-05-14T23:28:57.577Z,9.0589
2023-05-14T23:31:01.142Z,9.0710
2023-05-14T23:32:02.685Z,9.0853
2023-05-14T23:34:03.404Z,9.0870
2023-05-14T23:37:05.714Z,9.1037
2023-05-14T23:50:07.380Z,9.0743
2023-05-14T23:53:12.591Z,9.0461
2023-05-14T23:54:14.666Z,9.0413
2023-05-14T23:55:15.867Z,9.0149
2023-05-14T23:56:18.078Z,9.0159
2023-05-14T23:57:18.364Z,9.0152
2023-05-14T23:58:18.391Z,9.0105
2023-05-14T23:59:19.107Z,8.9899
